NY15 weather

Lakeville Airport
Lakeville, New York, United States

Public forecast

Using degrees Fahrenheit for public forecast. Weather courtesy of forecast.io.

METAR (pilot weather report)

Closest report is Dansville Municipal Airport, 15.3 nm (28.4 km) S. Retrieved 2019/07/21 17:54 UTC (17 minutes ago):

KDSV 211754Z AUTO 32012KT 10SM BKN041 OVC047 28/20 A2990 RMK AO2 SLP128 T02830200 10294 20272 53008

TAF (pilot weather forecast)

Closest forecast is Greater Rochester International Airport, 17.7 nm (32.7 km) N. Retrieved 2019/07/21 18:42 UTC (0 seconds ago):

TAF KROC 211740Z 2118/2218 30014KT P6SM SCT035 BKN150 FM212000 30012KT P6SM BKN200 FM220000 28006KT P6SM SCT200 FM221100 22006KT P6SM OVC080